sensor_id;sensor_type;location;lat;lon;timestamp;P1;durP1;ratioP1;P2;durP2;ratioP2
18224;SDS011;9237;48.590;8.854;2022-08-25T00:01:44;0.60;;;0.60;;
18224;SDS011;9237;48.590;8.854;2022-08-25T00:04:14;0.60;;;0.60;;
18224;SDS011;9237;48.590;8.854;2022-08-25T00:06:42;0.60;;;0.60;;
18224;SDS011;9237;48.590;8.854;2022-08-25T00:09:10;0.60;;;0.60;;
18224;SDS011;9237;48.590;8.854;2022-08-25T00:11:39;0.50;;;0.50;;
18224;SDS011;9237;48.590;8.854;2022-08-25T00:14:09;0.60;;;0.60;;
18224;SDS011;9237;48.590;8.854;2022-08-25T00:16:38;0.60;;;0.60;;
18224;SDS011;9237;48.590;8.854;2022-08-25T00:19:07;0.60;;;0.60;;
18224;SDS011;9237;48.590;8.854;2022-08-25T00:21:35;0.60;;;0.60;;
18224;SDS011;9237;48.590;8.854;2022-08-25T00:24:03;0.70;;;0.70;;
18224;SDS011;9237;48.590;8.854;2022-08-25T00:26:30;0.60;;;0.60;;
18224;SDS011;9237;48.590;8.854;2022-08-25T00:28:57;0.60;;;0.60;;
18224;SDS011;9237;48.590;8.854;2022-08-25T00:31:25;0.50;;;0.50;;
18224;SDS011;9237;48.590;8.854;2022-08-25T00:33:52;0.60;;;0.60;;
18224;SDS011;9237;48.590;8.854;2022-08-25T00:36:19;0.50;;;0.50;;
18224;SDS011;9237;48.590;8.854;2022-08-25T00:38:46;0.60;;;0.60;;
18224;SDS011;9237;48.590;8.854;2022-08-25T00:41:15;0.60;;;0.60;;
18224;SDS011;9237;48.590;8.854;2022-08-25T00:43:46;0.60;;;0.60;;
18224;SDS011;9237;48.590;8.854;2022-08-25T00:46:16;0.50;;;0.50;;
18224;SDS011;9237;48.590;8.854;2022-08-25T00:48:48;0.60;;;0.60;;
18224;SDS011;9237;48.590;8.854;2022-08-25T00:51:19;0.60;;;0.60;;
18224;SDS011;9237;48.590;8.854;2022-08-25T00:53:53;0.63;;;0.63;;
18224;SDS011;9237;48.590;8.854;2022-08-25T00:56:20;0.60;;;0.60;;
18224;SDS011;9237;48.590;8.854;2022-08-25T00:58:47;0.60;;;0.60;;
18224;SDS011;9237;48.590;8.854;2022-08-25T01:01:15;0.70;;;0.70;;
18224;SDS011;9237;48.590;8.854;2022-08-25T01:03:42;0.70;;;0.70;;
18224;SDS011;9237;48.590;8.854;2022-08-25T01:06:10;0.60;;;0.60;;
18224;SDS011;9237;48.590;8.854;2022-08-25T01:08:37;0.60;;;0.60;;
18224;SDS011;9237;48.590;8.854;2022-08-25T01:11:05;0.70;;;0.70;;
18224;SDS011;9237;48.590;8.854;2022-08-25T01:13:34;0.70;;;0.70;;
18224;SDS011;9237;48.590;8.854;2022-08-25T01:16:04;0.60;;;0.60;;
18224;SDS011;9237;48.590;8.854;2022-08-25T01:18:41;0.70;;;0.70;;
18224;SDS011;9237;48.590;8.854;2022-08-25T01:21:11;0.60;;;0.60;;
18224;SDS011;9237;48.590;8.854;2022-08-25T01:23:38;0.70;;;0.70;;
18224;SDS011;9237;48.590;8.854;2022-08-25T01:26:07;0.70;;;0.70;;
18224;SDS011;9237;48.590;8.854;2022-08-25T01:28:37;0.60;;;0.60;;
18224;SDS011;9237;48.590;8.854;2022-08-25T01:31:25;0.60;;;0.60;;
18224;SDS011;9237;48.590;8.854;2022-08-25T01:33:52;0.60;;;0.60;;
18224;SDS011;9237;48.590;8.854;2022-08-25T01:36:21;0.60;;;0.60;;
18224;SDS011;9237;48.590;8.854;2022-08-25T01:38:48;0.60;;;0.60;;
18224;SDS011;9237;48.590;8.854;2022-08-25T01:41:16;0.70;;;0.70;;
18224;SDS011;9237;48.590;8.854;2022-08-25T01:43:50;0.60;;;0.60;;
18224;SDS011;9237;48.590;8.854;2022-08-25T01:46:17;0.60;;;0.60;;
18224;SDS011;9237;48.590;8.854;2022-08-25T01:48:44;0.67;;;0.67;;
18224;SDS011;9237;48.590;8.854;2022-08-25T01:51:12;0.70;;;0.70;;
18224;SDS011;9237;48.590;8.854;2022-08-25T01:53:41;0.67;;;0.67;;
18224;SDS011;9237;48.590;8.854;2022-08-25T01:56:09;0.60;;;0.60;;
18224;SDS011;9237;48.590;8.854;2022-08-25T01:58:39;0.60;;;0.60;;
18224;SDS011;9237;48.590;8.854;2022-08-25T02:01:08;0.70;;;0.70;;
18224;SDS011;9237;48.590;8.854;2022-08-25T02:03:40;0.60;;;0.60;;
18224;SDS011;9237;48.590;8.854;2022-08-25T02:06:09;0.60;;;0.60;;
18224;SDS011;9237;48.590;8.854;2022-08-25T02:08:37;0.70;;;0.70;;
18224;SDS011;9237;48.590;8.854;2022-08-25T02:11:06;0.60;;;0.60;;
18224;SDS011;9237;48.590;8.854;2022-08-25T02:13:37;0.70;;;0.70;;
18224;SDS011;9237;48.590;8.854;2022-08-25T02:16:04;0.70;;;0.70;;
18224;SDS011;9237;48.590;8.854;2022-08-25T02:18:32;0.60;;;0.60;;
18224;SDS011;9237;48.590;8.854;2022-08-25T02:20:58;0.60;;;0.60;;
18224;SDS011;9237;48.590;8.854;2022-08-25T02:23:25;0.60;;;0.60;;
18224;SDS011;9237;48.590;8.854;2022-08-25T02:25:52;0.70;;;0.70;;
18224;SDS011;9237;48.590;8.854;2022-08-25T02:28:22;0.70;;;0.70;;
18224;SDS011;9237;48.590;8.854;2022-08-25T02:30:49;0.70;;;0.70;;
18224;SDS011;9237;48.590;8.854;2022-08-25T02:33:17;0.60;;;0.60;;
18224;SDS011;9237;48.590;8.854;2022-08-25T02:35:44;0.70;;;0.70;;
18224;SDS011;9237;48.590;8.854;2022-08-25T02:38:11;0.60;;;0.60;;
18224;SDS011;9237;48.590;8.854;2022-08-25T02:40:38;0.70;;;0.70;;
18224;SDS011;9237;48.590;8.854;2022-08-25T02:43:05;0.70;;;0.70;;
18224;SDS011;9237;48.590;8.854;2022-08-25T02:45:33;0.70;;;0.70;;
18224;SDS011;9237;48.590;8.854;2022-08-25T02:48:00;0.57;;;0.57;;
18224;SDS011;9237;48.590;8.854;2022-08-25T02:50:28;0.70;;;0.70;;
18224;SDS011;9237;48.590;8.854;2022-08-25T02:52:55;0.70;;;0.70;;
18224;SDS011;9237;48.590;8.854;2022-08-25T02:55:21;0.60;;;0.60;;
18224;SDS011;9237;48.590;8.854;2022-08-25T02:57:48;0.60;;;0.60;;
18224;SDS011;9237;48.590;8.854;2022-08-25T03:00:16;0.60;;;0.60;;
18224;SDS011;9237;48.590;8.854;2022-08-25T03:02:44;0.60;;;0.60;;
18224;SDS011;9237;48.590;8.854;2022-08-25T03:05:12;0.70;;;0.70;;
18224;SDS011;9237;48.590;8.854;2022-08-25T03:07:39;0.60;;;0.60;;
18224;SDS011;9237;48.590;8.854;2022-08-25T03:10:07;0.60;;;0.60;;
18224;SDS011;9237;48.590;8.854;2022-08-25T03:12:37;0.60;;;0.60;;
18224;SDS011;9237;48.590;8.854;2022-08-25T03:15:05;0.60;;;0.60;;
18224;SDS011;9237;48.590;8.854;2022-08-25T03:17:33;0.50;;;0.50;;
18224;SDS011;9237;48.590;8.854;2022-08-25T03:20:02;0.60;;;0.60;;
18224;SDS011;9237;48.590;8.854;2022-08-25T03:22:29;0.60;;;0.60;;
18224;SDS011;9237;48.590;8.854;2022-08-25T03:24:57;0.60;;;0.60;;
18224;SDS011;9237;48.590;8.854;2022-08-25T03:27:44;0.60;;;0.60;;
18224;SDS011;9237;48.590;8.854;2022-08-25T03:30:10;0.60;;;0.60;;
18224;SDS011;9237;48.590;8.854;2022-08-25T03:32:38;0.60;;;0.60;;
18224;SDS011;9237;48.590;8.854;2022-08-25T03:35:07;0.60;;;0.60;;
18224;SDS011;9237;48.590;8.854;2022-08-25T03:37:34;0.60;;;0.60;;
18224;SDS011;9237;48.590;8.854;2022-08-25T03:40:03;0.70;;;0.70;;
18224;SDS011;9237;48.590;8.854;2022-08-25T03:42:31;0.70;;;0.70;;
18224;SDS011;9237;48.590;8.854;2022-08-25T03:45:00;0.60;;;0.60;;
18224;SDS011;9237;48.590;8.854;2022-08-25T03:47:27;0.57;;;0.57;;
18224;SDS011;9237;48.590;8.854;2022-08-25T03:49:55;0.60;;;0.60;;
18224;SDS011;9237;48.590;8.854;2022-08-25T03:52:23;0.60;;;0.60;;
18224;SDS011;9237;48.590;8.854;2022-08-25T03:54:50;0.60;;;0.60;;
18224;SDS011;9237;48.590;8.854;2022-08-25T03:57:17;0.60;;;0.60;;
18224;SDS011;9237;48.590;8.854;2022-08-25T03:59:45;0.60;;;0.60;;
18224;SDS011;9237;48.590;8.854;2022-08-25T04:02:12;0.60;;;0.60;;
18224;SDS011;9237;48.590;8.854;2022-08-25T04:04:38;0.60;;;0.60;;
18224;SDS011;9237;48.590;8.854;2022-08-25T04:07:05;0.70;;;0.70;;
18224;SDS011;9237;48.590;8.854;2022-08-25T04:09:34;0.60;;;0.60;;
18224;SDS011;9237;48.590;8.854;2022-08-25T04:12:01;0.60;;;0.60;;
18224;SDS011;9237;48.590;8.854;2022-08-25T04:14:28;0.60;;;0.60;;
18224;SDS011;9237;48.590;8.854;2022-08-25T04:16:55;0.60;;;0.60;;
18224;SDS011;9237;48.590;8.854;2022-08-25T04:19:22;0.60;;;0.60;;
18224;SDS011;9237;48.590;8.854;2022-08-25T04:21:49;0.60;;;0.60;;
18224;SDS011;9237;48.590;8.854;2022-08-25T04:24:16;0.50;;;0.50;;
18224;SDS011;9237;48.590;8.854;2022-08-25T04:26:46;0.60;;;0.60;;
18224;SDS011;9237;48.590;8.854;2022-08-25T04:29:16;0.60;;;0.60;;
18224;SDS011;9237;48.590;8.854;2022-08-25T04:31:44;0.70;;;0.70;;
18224;SDS011;9237;48.590;8.854;2022-08-25T04:34:14;0.60;;;0.60;;
18224;SDS011;9237;48.590;8.854;2022-08-25T04:36:42;0.60;;;0.60;;
18224;SDS011;9237;48.590;8.854;2022-08-25T04:39:08;0.70;;;0.70;;
18224;SDS011;9237;48.590;8.854;2022-08-25T04:41:35;0.60;;;0.60;;
18224;SDS011;9237;48.590;8.854;2022-08-25T04:44:04;0.60;;;0.60;;
18224;SDS011;9237;48.590;8.854;2022-08-25T04:46:32;0.60;;;0.60;;
18224;SDS011;9237;48.590;8.854;2022-08-25T04:49:00;0.60;;;0.60;;
18224;SDS011;9237;48.590;8.854;2022-08-25T04:51:29;0.70;;;0.70;;
18224;SDS011;9237;48.590;8.854;2022-08-25T04:53:58;0.60;;;0.60;;
18224;SDS011;9237;48.590;8.854;2022-08-25T04:56:26;0.60;;;0.60;;
18224;SDS011;9237;48.590;8.854;2022-08-25T04:58:54;0.60;;;0.60;;
18224;SDS011;9237;48.590;8.854;2022-08-25T05:01:23;0.60;;;0.60;;
18224;SDS011;9237;48.590;8.854;2022-08-25T05:03:52;0.67;;;0.67;;
18224;SDS011;9237;48.590;8.854;2022-08-25T05:06:20;0.63;;;0.63;;
18224;SDS011;9237;48.590;8.854;2022-08-25T05:08:47;0.60;;;0.60;;
18224;SDS011;9237;48.590;8.854;2022-08-25T05:11:15;0.60;;;0.60;;
18224;SDS011;9237;48.590;8.854;2022-08-25T05:13:44;0.70;;;0.70;;
18224;SDS011;9237;48.590;8.854;2022-08-25T05:16:11;0.67;;;0.67;;
18224;SDS011;9237;48.590;8.854;2022-08-25T05:18:40;0.60;;;0.60;;
18224;SDS011;9237;48.590;8.854;2022-08-25T05:21:09;0.60;;;0.60;;
18224;SDS011;9237;48.590;8.854;2022-08-25T05:23:38;0.60;;;0.60;;
18224;SDS011;9237;48.590;8.854;2022-08-25T05:26:07;0.60;;;0.60;;
18224;SDS011;9237;48.590;8.854;2022-08-25T05:28:36;0.60;;;0.60;;
18224;SDS011;9237;48.590;8.854;2022-08-25T05:31:06;0.67;;;0.67;;
18224;SDS011;9237;48.590;8.854;2022-08-25T05:33:34;0.60;;;0.60;;
18224;SDS011;9237;48.590;8.854;2022-08-25T05:36:04;0.60;;;0.60;;
18224;SDS011;9237;48.590;8.854;2022-08-25T05:38:31;0.60;;;0.60;;
18224;SDS011;9237;48.590;8.854;2022-08-25T05:40:58;0.60;;;0.60;;
18224;SDS011;9237;48.590;8.854;2022-08-25T05:43:28;0.60;;;0.60;;
18224;SDS011;9237;48.590;8.854;2022-08-25T05:45:56;0.60;;;0.60;;
18224;SDS011;9237;48.590;8.854;2022-08-25T05:48:23;0.60;;;0.60;;
18224;SDS011;9237;48.590;8.854;2022-08-25T05:50:52;0.60;;;0.60;;
18224;SDS011;9237;48.590;8.854;2022-08-25T05:53:21;0.60;;;0.60;;
18224;SDS011;9237;48.590;8.854;2022-08-25T05:55:49;0.57;;;0.57;;
18224;SDS011;9237;48.590;8.854;2022-08-25T05:58:18;0.50;;;0.50;;
18224;SDS011;9237;48.590;8.854;2022-08-25T06:00:45;0.60;;;0.60;;
18224;SDS011;9237;48.590;8.854;2022-08-25T06:03:12;0.60;;;0.60;;
18224;SDS011;9237;48.590;8.854;2022-08-25T06:05:38;0.60;;;0.60;;
18224;SDS011;9237;48.590;8.854;2022-08-25T06:08:05;0.60;;;0.60;;
18224;SDS011;9237;48.590;8.854;2022-08-25T06:10:34;0.60;;;0.60;;
18224;SDS011;9237;48.590;8.854;2022-08-25T06:13:02;0.50;;;0.50;;
18224;SDS011;9237;48.590;8.854;2022-08-25T06:15:29;0.50;;;0.50;;
18224;SDS011;9237;48.590;8.854;2022-08-25T06:17:57;0.50;;;0.50;;
18224;SDS011;9237;48.590;8.854;2022-08-25T06:20:26;0.50;;;0.50;;
18224;SDS011;9237;48.590;8.854;2022-08-25T06:22:54;0.50;;;0.50;;
18224;SDS011;9237;48.590;8.854;2022-08-25T06:25:22;0.50;;;0.50;;
18224;SDS011;9237;48.590;8.854;2022-08-25T06:27:52;0.50;;;0.50;;
18224;SDS011;9237;48.590;8.854;2022-08-25T06:30:20;0.40;;;0.40;;
18224;SDS011;9237;48.590;8.854;2022-08-25T06:32:48;0.50;;;0.50;;
18224;SDS011;9237;48.590;8.854;2022-08-25T06:35:16;0.40;;;0.40;;
18224;SDS011;9237;48.590;8.854;2022-08-25T06:37:46;0.50;;;0.50;;
18224;SDS011;9237;48.590;8.854;2022-08-25T06:40:13;0.50;;;0.50;;
18224;SDS011;9237;48.590;8.854;2022-08-25T06:42:40;0.43;;;0.43;;
18224;SDS011;9237;48.590;8.854;2022-08-25T06:45:09;0.40;;;0.40;;
18224;SDS011;9237;48.590;8.854;2022-08-25T06:47:36;0.40;;;0.40;;
18224;SDS011;9237;48.590;8.854;2022-08-25T06:50:03;0.40;;;0.40;;
18224;SDS011;9237;48.590;8.854;2022-08-25T06:52:31;0.40;;;0.40;;
18224;SDS011;9237;48.590;8.854;2022-08-25T06:54:58;0.40;;;0.40;;
18224;SDS011;9237;48.590;8.854;2022-08-25T06:57:25;0.40;;;0.40;;
18224;SDS011;9237;48.590;8.854;2022-08-25T06:59:52;0.40;;;0.40;;
18224;SDS011;9237;48.590;8.854;2022-08-25T07:02:20;0.40;;;0.40;;
18224;SDS011;9237;48.590;8.854;2022-08-25T07:04:47;0.40;;;0.40;;
18224;SDS011;9237;48.590;8.854;2022-08-25T07:07:13;0.40;;;0.40;;
18224;SDS011;9237;48.590;8.854;2022-08-25T07:09:41;0.40;;;0.40;;
18224;SDS011;9237;48.590;8.854;2022-08-25T07:12:07;0.40;;;0.40;;
18224;SDS011;9237;48.590;8.854;2022-08-25T07:14:34;0.40;;;0.40;;
18224;SDS011;9237;48.590;8.854;2022-08-25T07:17:01;0.40;;;0.40;;
18224;SDS011;9237;48.590;8.854;2022-08-25T07:19:30;0.40;;;0.40;;
18224;SDS011;9237;48.590;8.854;2022-08-25T07:21:57;0.40;;;0.40;;
18224;SDS011;9237;48.590;8.854;2022-08-25T07:24:24;0.40;;;0.40;;
18224;SDS011;9237;48.590;8.854;2022-08-25T07:26:50;0.30;;;0.30;;
18224;SDS011;9237;48.590;8.854;2022-08-25T07:29:18;0.40;;;0.40;;
18224;SDS011;9237;48.590;8.854;2022-08-25T07:31:47;0.30;;;0.30;;
18224;SDS011;9237;48.590;8.854;2022-08-25T07:34:14;0.30;;;0.30;;
18224;SDS011;9237;48.590;8.854;2022-08-25T07:37:00;0.30;;;0.30;;
18224;SDS011;9237;48.590;8.854;2022-08-25T07:39:28;0.30;;;0.30;;
18224;SDS011;9237;48.590;8.854;2022-08-25T07:41:56;0.32;;;0.32;;
18224;SDS011;9237;48.590;8.854;2022-08-25T07:44:23;0.30;;;0.30;;
18224;SDS011;9237;48.590;8.854;2022-08-25T07:46:51;0.30;;;0.30;;
18224;SDS011;9237;48.590;8.854;2022-08-25T07:49:19;0.30;;;0.30;;
18224;SDS011;9237;48.590;8.854;2022-08-25T07:51:47;0.40;;;0.40;;
18224;SDS011;9237;48.590;8.854;2022-08-25T07:54:15;0.30;;;0.30;;
18224;SDS011;9237;48.590;8.854;2022-08-25T07:56:42;0.30;;;0.30;;
18224;SDS011;9237;48.590;8.854;2022-08-25T07:59:09;0.30;;;0.30;;
18224;SDS011;9237;48.590;8.854;2022-08-25T08:01:36;0.30;;;0.30;;
18224;SDS011;9237;48.590;8.854;2022-08-25T08:04:03;0.30;;;0.30;;
18224;SDS011;9237;48.590;8.854;2022-08-25T08:06:30;0.30;;;0.30;;
18224;SDS011;9237;48.590;8.854;2022-08-25T08:08:57;0.30;;;0.30;;
18224;SDS011;9237;48.590;8.854;2022-08-25T08:11:28;0.30;;;0.30;;
18224;SDS011;9237;48.590;8.854;2022-08-25T08:13:59;0.22;;;0.22;;
18224;SDS011;9237;48.590;8.854;2022-08-25T08:16:28;0.30;;;0.30;;
18224;SDS011;9237;48.590;8.854;2022-08-25T08:18:55;0.20;;;0.20;;
18224;SDS011;9237;48.590;8.854;2022-08-25T08:21:24;0.20;;;0.20;;
18224;SDS011;9237;48.590;8.854;2022-08-25T08:23:53;0.30;;;0.30;;
18224;SDS011;9237;48.590;8.854;2022-08-25T08:26:21;0.20;;;0.20;;
18224;SDS011;9237;48.590;8.854;2022-08-25T08:28:50;0.20;;;0.20;;
18224;SDS011;9237;48.590;8.854;2022-08-25T08:31:17;0.20;;;0.20;;
18224;SDS011;9237;48.590;8.854;2022-08-25T08:33:45;0.20;;;0.20;;
18224;SDS011;9237;48.590;8.854;2022-08-25T08:36:12;0.20;;;0.20;;
18224;SDS011;9237;48.590;8.854;2022-08-25T08:38:41;0.20;;;0.20;;
18224;SDS011;9237;48.590;8.854;2022-08-25T08:41:11;0.20;;;0.20;;
18224;SDS011;9237;48.590;8.854;2022-08-25T08:44:06;0.20;;;0.20;;
18224;SDS011;9237;48.590;8.854;2022-08-25T08:46:45;0.20;;;0.20;;
18224;SDS011;9237;48.590;8.854;2022-08-25T08:49:24;0.20;;;0.20;;
18224;SDS011;9237;48.590;8.854;2022-08-25T08:51:57;0.20;;;0.20;;
18224;SDS011;9237;48.590;8.854;2022-08-25T08:54:27;0.20;;;0.20;;
18224;SDS011;9237;48.590;8.854;2022-08-25T08:57:01;0.20;;;0.20;;
18224;SDS011;9237;48.590;8.854;2022-08-25T08:59:37;0.20;;;0.20;;
18224;SDS011;9237;48.590;8.854;2022-08-25T09:02:11;0.20;;;0.20;;
18224;SDS011;9237;48.590;8.854;2022-08-25T09:04:42;0.20;;;0.20;;
18224;SDS011;9237;48.590;8.854;2022-08-25T09:07:15;0.20;;;0.20;;
18224;SDS011;9237;48.590;8.854;2022-08-25T09:09:44;0.20;;;0.20;;
18224;SDS011;9237;48.590;8.854;2022-08-25T09:12:14;0.20;;;0.20;;
18224;SDS011;9237;48.590;8.854;2022-08-25T09:14:53;0.20;;;0.20;;
18224;SDS011;9237;48.590;8.854;2022-08-25T09:17:39;0.20;;;0.20;;
18224;SDS011;9237;48.590;8.854;2022-08-25T09:23:15;0.20;;;0.20;;
18224;SDS011;9237;48.590;8.854;2022-08-25T09:25:56;0.20;;;0.20;;
18224;SDS011;9237;48.590;8.854;2022-08-25T09:28:29;0.20;;;0.20;;
18224;SDS011;9237;48.590;8.854;2022-08-25T09:31:01;0.20;;;0.20;;
18224;SDS011;9237;48.590;8.854;2022-08-25T09:33:32;0.20;;;0.20;;
18224;SDS011;9237;48.590;8.854;2022-08-25T09:36:00;0.20;;;0.20;;
18224;SDS011;9237;48.590;8.854;2022-08-25T09:38:27;0.22;;;0.22;;
18224;SDS011;9237;48.590;8.854;2022-08-25T09:40:55;0.20;;;0.20;;
18224;SDS011;9237;48.590;8.854;2022-08-25T09:43:28;0.20;;;0.20;;
18224;SDS011;9237;48.590;8.854;2022-08-25T09:45:58;0.20;;;0.20;;
18224;SDS011;9237;48.590;8.854;2022-08-25T09:48:28;0.20;;;0.20;;
18224;SDS011;9237;48.590;8.854;2022-08-25T09:51:14;0.10;;;0.10;;
18224;SDS011;9237;48.590;8.854;2022-08-25T09:53:46;0.20;;;0.20;;
18224;SDS011;9237;48.590;8.854;2022-08-25T09:56:18;0.20;;;0.20;;
18224;SDS011;9237;48.590;8.854;2022-08-25T09:58:45;0.20;;;0.20;;
18224;SDS011;9237;48.590;8.854;2022-08-25T10:01:15;0.20;;;0.20;;
18224;SDS011;9237;48.590;8.854;2022-08-25T10:03:54;0.20;;;0.20;;
18224;SDS011;9237;48.590;8.854;2022-08-25T10:06:24;0.20;;;0.20;;
18224;SDS011;9237;48.590;8.854;2022-08-25T10:08:54;0.20;;;0.20;;
18224;SDS011;9237;48.590;8.854;2022-08-25T10:11:31;0.20;;;0.20;;
18224;SDS011;9237;48.590;8.854;2022-08-25T10:14:05;0.20;;;0.20;;
18224;SDS011;9237;48.590;8.854;2022-08-25T10:16:41;0.20;;;0.20;;
18224;SDS011;9237;48.590;8.854;2022-08-25T10:19:10;0.20;;;0.20;;
18224;SDS011;9237;48.590;8.854;2022-08-25T10:21:39;0.20;;;0.20;;
18224;SDS011;9237;48.590;8.854;2022-08-25T10:24:07;0.20;;;0.20;;
18224;SDS011;9237;48.590;8.854;2022-08-25T10:26:39;0.20;;;0.20;;
18224;SDS011;9237;48.590;8.854;2022-08-25T10:29:19;0.20;;;0.20;;
18224;SDS011;9237;48.590;8.854;2022-08-25T10:32:03;0.20;;;0.20;;
18224;SDS011;9237;48.590;8.854;2022-08-25T10:34:38;0.20;;;0.20;;
18224;SDS011;9237;48.590;8.854;2022-08-25T10:37:12;0.20;;;0.20;;
18224;SDS011;9237;48.590;8.854;2022-08-25T10:39:51;0.10;;;0.10;;
18224;SDS011;9237;48.590;8.854;2022-08-25T10:42:29;0.20;;;0.20;;
18224;SDS011;9237;48.590;8.854;2022-08-25T10:48:11;0.20;;;0.20;;
18224;SDS011;9237;48.590;8.854;2022-08-25T10:50:57;0.20;;;0.20;;
18224;SDS011;9237;48.590;8.854;2022-08-25T10:53:32;0.20;;;0.20;;
18224;SDS011;9237;48.590;8.854;2022-08-25T10:56:07;0.20;;;0.20;;
18224;SDS011;9237;48.590;8.854;2022-08-25T10:58:44;0.20;;;0.20;;
18224;SDS011;9237;48.590;8.854;2022-08-25T11:01:29;0.20;;;0.20;;
18224;SDS011;9237;48.590;8.854;2022-08-25T11:04:07;0.20;;;0.20;;
18224;SDS011;9237;48.590;8.854;2022-08-25T11:06:38;0.20;;;0.20;;
18224;SDS011;9237;48.590;8.854;2022-08-25T11:09:11;0.20;;;0.20;;
18224;SDS011;9237;48.590;8.854;2022-08-25T11:11:44;0.10;;;0.10;;
18224;SDS011;9237;48.590;8.854;2022-08-25T11:14:15;0.20;;;0.20;;
18224;SDS011;9237;48.590;8.854;2022-08-25T11:16:47;0.20;;;0.20;;
18224;SDS011;9237;48.590;8.854;2022-08-25T11:19:22;0.20;;;0.20;;
18224;SDS011;9237;48.590;8.854;2022-08-25T11:21:56;0.20;;;0.20;;
18224;SDS011;9237;48.590;8.854;2022-08-25T11:24:39;0.20;;;0.20;;
18224;SDS011;9237;48.590;8.854;2022-08-25T11:27:11;0.20;;;0.20;;
18224;SDS011;9237;48.590;8.854;2022-08-25T11:29:48;0.10;;;0.10;;
18224;SDS011;9237;48.590;8.854;2022-08-25T11:32:23;0.20;;;0.20;;
18224;SDS011;9237;48.590;8.854;2022-08-25T11:34:52;0.20;;;0.20;;
18224;SDS011;9237;48.590;8.854;2022-08-25T11:37:20;0.10;;;0.10;;
18224;SDS011;9237;48.590;8.854;2022-08-25T11:39:57;0.10;;;0.10;;
18224;SDS011;9237;48.590;8.854;2022-08-25T11:42:42;0.10;;;0.10;;
18224;SDS011;9237;48.590;8.854;2022-08-25T11:45:26;0.17;;;0.17;;
18224;SDS011;9237;48.590;8.854;2022-08-25T11:48:12;0.20;;;0.20;;
18224;SDS011;9237;48.590;8.854;2022-08-25T11:50:58;0.20;;;0.20;;
18224;SDS011;9237;48.590;8.854;2022-08-25T11:53:27;0.20;;;0.20;;
18224;SDS011;9237;48.590;8.854;2022-08-25T11:55:56;0.15;;;0.15;;
18224;SDS011;9237;48.590;8.854;2022-08-25T11:58:30;0.10;;;0.10;;
18224;SDS011;9237;48.590;8.854;2022-08-25T12:01:10;0.20;;;0.20;;
18224;SDS011;9237;48.590;8.854;2022-08-25T12:15:33;0.10;;;0.10;;
18224;SDS011;9237;48.590;8.854;2022-08-25T12:18:15;0.20;;;0.20;;
18224;SDS011;9237;48.590;8.854;2022-08-25T12:26:54;0.20;;;0.20;;
18224;SDS011;9237;48.590;8.854;2022-08-25T12:29:25;0.20;;;0.20;;
18224;SDS011;9237;48.590;8.854;2022-08-25T12:32:02;0.10;;;0.10;;
18224;SDS011;9237;48.590;8.854;2022-08-25T12:34:47;0.20;;;0.20;;
18224;SDS011;9237;48.590;8.854;2022-08-25T12:40:27;0.10;;;0.10;;
18224;SDS011;9237;48.590;8.854;2022-08-25T12:43:05;0.20;;;0.20;;
18224;SDS011;9237;48.590;8.854;2022-08-25T12:45:37;0.20;;;0.20;;
18224;SDS011;9237;48.590;8.854;2022-08-25T12:51:20;0.20;;;0.20;;
18224;SDS011;9237;48.590;8.854;2022-08-25T12:53:48;0.20;;;0.20;;
18224;SDS011;9237;48.590;8.854;2022-08-25T12:56:29;0.20;;;0.20;;
18224;SDS011;9237;48.590;8.854;2022-08-25T12:59:06;0.17;;;0.17;;
18224;SDS011;9237;48.590;8.854;2022-08-25T13:01:46;0.20;;;0.20;;
18224;SDS011;9237;48.590;8.854;2022-08-25T13:07:45;0.20;;;0.20;;
18224;SDS011;9237;48.590;8.854;2022-08-25T13:10:37;0.20;;;0.20;;
18224;SDS011;9237;48.590;8.854;2022-08-25T13:13:11;0.20;;;0.20;;
18224;SDS011;9237;48.590;8.854;2022-08-25T13:15:45;0.20;;;0.20;;
18224;SDS011;9237;48.590;8.854;2022-08-25T13:18:24;0.20;;;0.20;;
18224;SDS011;9237;48.590;8.854;2022-08-25T13:20:54;0.20;;;0.20;;
18224;SDS011;9237;48.590;8.854;2022-08-25T13:23:28;0.20;;;0.20;;
18224;SDS011;9237;48.590;8.854;2022-08-25T13:25:56;0.20;;;0.20;;
18224;SDS011;9237;48.590;8.854;2022-08-25T13:28:26;0.20;;;0.20;;
18224;SDS011;9237;48.590;8.854;2022-08-25T13:30:59;0.28;;;0.28;;
18224;SDS011;9237;48.590;8.854;2022-08-25T13:33:31;0.20;;;0.20;;
18224;SDS011;9237;48.590;8.854;2022-08-25T13:35:59;0.30;;;0.30;;
18224;SDS011;9237;48.590;8.854;2022-08-25T13:38:45;0.20;;;0.20;;
18224;SDS011;9237;48.590;8.854;2022-08-25T13:41:21;0.20;;;0.20;;
18224;SDS011;9237;48.590;8.854;2022-08-25T13:43:51;0.30;;;0.30;;
18224;SDS011;9237;48.590;8.854;2022-08-25T13:46:20;0.30;;;0.30;;
18224;SDS011;9237;48.590;8.854;2022-08-25T13:48:48;0.20;;;0.20;;
18224;SDS011;9237;48.590;8.854;2022-08-25T13:51:16;0.20;;;0.20;;
18224;SDS011;9237;48.590;8.854;2022-08-25T13:53:49;0.20;;;0.20;;
18224;SDS011;9237;48.590;8.854;2022-08-25T13:56:25;0.20;;;0.20;;
18224;SDS011;9237;48.590;8.854;2022-08-25T13:58:57;0.20;;;0.20;;
18224;SDS011;9237;48.590;8.854;2022-08-25T14:01:27;0.20;;;0.20;;
18224;SDS011;9237;48.590;8.854;2022-08-25T14:03:57;0.20;;;0.20;;
18224;SDS011;9237;48.590;8.854;2022-08-25T14:06:47;0.20;;;0.20;;
18224;SDS011;9237;48.590;8.854;2022-08-25T14:09:15;0.20;;;0.20;;
18224;SDS011;9237;48.590;8.854;2022-08-25T14:11:44;0.20;;;0.20;;
18224;SDS011;9237;48.590;8.854;2022-08-25T14:16:59;0.20;;;0.20;;
18224;SDS011;9237;48.590;8.854;2022-08-25T14:19:30;0.20;;;0.20;;
18224;SDS011;9237;48.590;8.854;2022-08-25T14:21:57;0.20;;;0.20;;
18224;SDS011;9237;48.590;8.854;2022-08-25T14:24:26;0.20;;;0.20;;
18224;SDS011;9237;48.590;8.854;2022-08-25T14:26:58;0.20;;;0.20;;
18224;SDS011;9237;48.590;8.854;2022-08-25T14:29:27;0.20;;;0.20;;
18224;SDS011;9237;48.590;8.854;2022-08-25T14:31:57;0.20;;;0.20;;
18224;SDS011;9237;48.590;8.854;2022-08-25T14:34:26;0.20;;;0.20;;
18224;SDS011;9237;48.590;8.854;2022-08-25T14:36:55;0.20;;;0.20;;
18224;SDS011;9237;48.590;8.854;2022-08-25T14:39:23;0.20;;;0.20;;
18224;SDS011;9237;48.590;8.854;2022-08-25T14:41:50;0.20;;;0.20;;
18224;SDS011;9237;48.590;8.854;2022-08-25T14:44:18;0.20;;;0.20;;
18224;SDS011;9237;48.590;8.854;2022-08-25T14:46:47;0.20;;;0.20;;
18224;SDS011;9237;48.590;8.854;2022-08-25T14:49:18;0.20;;;0.20;;
18224;SDS011;9237;48.590;8.854;2022-08-25T14:51:47;0.20;;;0.20;;
18224;SDS011;9237;48.590;8.854;2022-08-25T14:54:14;0.20;;;0.20;;
18224;SDS011;9237;48.590;8.854;2022-08-25T14:56:43;0.20;;;0.20;;
18224;SDS011;9237;48.590;8.854;2022-08-25T14:59:11;0.20;;;0.20;;
18224;SDS011;9237;48.590;8.854;2022-08-25T15:01:38;0.20;;;0.20;;
18224;SDS011;9237;48.590;8.854;2022-08-25T15:04:05;0.20;;;0.20;;
18224;SDS011;9237;48.590;8.854;2022-08-25T15:06:36;0.10;;;0.10;;
18224;SDS011;9237;48.590;8.854;2022-08-25T15:09:03;0.20;;;0.20;;
18224;SDS011;9237;48.590;8.854;2022-08-25T15:11:35;0.15;;;0.15;;
18224;SDS011;9237;48.590;8.854;2022-08-25T15:14:04;0.10;;;0.10;;
18224;SDS011;9237;48.590;8.854;2022-08-25T15:16:31;0.20;;;0.20;;
18224;SDS011;9237;48.590;8.854;2022-08-25T15:19:00;0.20;;;0.20;;
18224;SDS011;9237;48.590;8.854;2022-08-25T15:21:29;0.20;;;0.20;;
18224;SDS011;9237;48.590;8.854;2022-08-25T15:23:57;0.20;;;0.20;;
18224;SDS011;9237;48.590;8.854;2022-08-25T15:26:25;0.10;;;0.10;;
18224;SDS011;9237;48.590;8.854;2022-08-25T15:28:52;0.20;;;0.20;;
18224;SDS011;9237;48.590;8.854;2022-08-25T15:31:19;0.20;;;0.20;;
18224;SDS011;9237;48.590;8.854;2022-08-25T15:33:47;0.20;;;0.20;;
18224;SDS011;9237;48.590;8.854;2022-08-25T15:36:15;0.20;;;0.20;;
18224;SDS011;9237;48.590;8.854;2022-08-25T15:38:44;0.20;;;0.20;;
18224;SDS011;9237;48.590;8.854;2022-08-25T15:41:14;0.20;;;0.20;;
18224;SDS011;9237;48.590;8.854;2022-08-25T15:43:40;0.20;;;0.20;;
18224;SDS011;9237;48.590;8.854;2022-08-25T15:46:08;0.20;;;0.20;;
18224;SDS011;9237;48.590;8.854;2022-08-25T15:48:38;0.20;;;0.20;;
18224;SDS011;9237;48.590;8.854;2022-08-25T15:51:05;0.20;;;0.20;;
18224;SDS011;9237;48.590;8.854;2022-08-25T15:53:32;0.22;;;0.22;;
18224;SDS011;9237;48.590;8.854;2022-08-25T15:56:00;0.30;;;0.30;;